sensor_id;sensor_type;location;lat;lon;timestamp;P1;durP1;ratioP1;P2;durP2;ratioP2
40951;SDS011;26682;51.660;19.338;2023-04-06T00:02:10;84.88;;;45.17;;
40951;SDS011;26682;51.660;19.338;2023-04-06T00:04:52;88.28;;;42.80;;
40951;SDS011;26682;51.660;19.338;2023-04-06T00:07:35;78.05;;;41.83;;
40951;SDS011;26682;51.660;19.338;2023-04-06T00:10:18;78.88;;;42.20;;
40951;SDS011;26682;51.660;19.338;2023-04-06T00:13:00;93.00;;;44.38;;
40951;SDS011;26682;51.660;19.338;2023-04-06T00:15:43;80.10;;;42.58;;
40951;SDS011;26682;51.660;19.338;2023-04-06T00:18:25;84.10;;;41.25;;
40951;SDS011;26682;51.660;19.338;2023-04-06T00:21:10;79.03;;;40.63;;
40951;SDS011;26682;51.660;19.338;2023-04-06T00:23:54;82.60;;;39.70;;
40951;SDS011;26682;51.660;19.338;2023-04-06T00:26:37;74.25;;;38.72;;
40951;SDS011;26682;51.660;19.338;2023-04-06T00:29:19;77.15;;;37.88;;
40951;SDS011;26682;51.660;19.338;2023-04-06T00:32:02;69.35;;;37.03;;
40951;SDS011;26682;51.660;19.338;2023-04-06T00:34:45;69.65;;;36.72;;
40951;SDS011;26682;51.660;19.338;2023-04-06T00:37:27;71.63;;;37.63;;
40951;SDS011;26682;51.660;19.338;2023-04-06T00:40:10;71.93;;;39.17;;
40951;SDS011;26682;51.660;19.338;2023-04-06T00:42:52;76.72;;;41.53;;
40951;SDS011;26682;51.660;19.338;2023-04-06T00:45:35;88.60;;;48.15;;
40951;SDS011;26682;51.660;19.338;2023-04-06T00:48:18;86.45;;;45.58;;
40951;SDS011;26682;51.660;19.338;2023-04-06T00:51:00;78.45;;;42.33;;
40951;SDS011;26682;51.660;19.338;2023-04-06T00:53:43;80.47;;;44.28;;
40951;SDS011;26682;51.660;19.338;2023-04-06T00:56:27;81.75;;;44.97;;
40951;SDS011;26682;51.660;19.338;2023-04-06T00:59:10;76.68;;;44.28;;
40951;SDS011;26682;51.660;19.338;2023-04-06T01:01:54;68.57;;;41.25;;
40951;SDS011;26682;51.660;19.338;2023-04-06T01:04:48;75.18;;;42.40;;
40951;SDS011;26682;51.660;19.338;2023-04-06T01:07:38;78.53;;;43.78;;
40951;SDS011;26682;51.660;19.338;2023-04-06T01:10:29;72.38;;;43.33;;
40951;SDS011;26682;51.660;19.338;2023-04-06T01:13:26;71.10;;;40.70;;
40951;SDS011;26682;51.660;19.338;2023-04-06T01:16:13;73.82;;;41.42;;
40951;SDS011;26682;51.660;19.338;2023-04-06T01:19:17;74.40;;;39.55;;
40951;SDS011;26682;51.660;19.338;2023-04-06T01:22:04;76.63;;;38.92;;
40951;SDS011;26682;51.660;19.338;2023-04-06T01:24:46;75.20;;;41.20;;
40951;SDS011;26682;51.660;19.338;2023-04-06T01:27:39;77.57;;;40.22;;
40951;SDS011;26682;51.660;19.338;2023-04-06T01:30:27;77.35;;;41.55;;
40951;SDS011;26682;51.660;19.338;2023-04-06T01:33:16;87.93;;;43.10;;
40951;SDS011;26682;51.660;19.338;2023-04-06T01:36:13;90.25;;;44.45;;
40951;SDS011;26682;51.660;19.338;2023-04-06T01:41:48;98.32;;;47.13;;
40951;SDS011;26682;51.660;19.338;2023-04-06T01:44:33;95.32;;;49.45;;
40951;SDS011;26682;51.660;19.338;2023-04-06T01:47:22;96.57;;;51.35;;
40951;SDS011;26682;51.660;19.338;2023-04-06T01:50:05;105.53;;;51.80;;
40951;SDS011;26682;51.660;19.338;2023-04-06T01:52:54;97.50;;;52.78;;
40951;SDS011;26682;51.660;19.338;2023-04-06T01:55:38;104.05;;;55.67;;
40951;SDS011;26682;51.660;19.338;2023-04-06T01:58:50;108.60;;;58.35;;
40951;SDS011;26682;51.660;19.338;2023-04-06T02:01:33;118.80;;;63.30;;
40951;SDS011;26682;51.660;19.338;2023-04-06T02:04:15;107.88;;;59.28;;
40951;SDS011;26682;51.660;19.338;2023-04-06T02:07:01;143.05;;;72.13;;
40951;SDS011;26682;51.660;19.338;2023-04-06T02:09:44;173.27;;;85.75;;
40951;SDS011;26682;51.660;19.338;2023-04-06T02:12:35;143.75;;;72.03;;
40951;SDS011;26682;51.660;19.338;2023-04-06T02:15:19;144.23;;;73.93;;
40951;SDS011;26682;51.660;19.338;2023-04-06T02:18:02;148.38;;;74.78;;
40951;SDS011;26682;51.660;19.338;2023-04-06T02:20:44;149.75;;;76.78;;
40951;SDS011;26682;51.660;19.338;2023-04-06T02:23:27;148.25;;;73.60;;
40951;SDS011;26682;51.660;19.338;2023-04-06T02:26:11;135.05;;;67.85;;
40951;SDS011;26682;51.660;19.338;2023-04-06T02:28:53;142.07;;;72.20;;
40951;SDS011;26682;51.660;19.338;2023-04-06T02:31:35;134.23;;;68.28;;
40951;SDS011;26682;51.660;19.338;2023-04-06T02:34:19;134.65;;;67.60;;
40951;SDS011;26682;51.660;19.338;2023-04-06T02:37:05;126.40;;;61.78;;
40951;SDS011;26682;51.660;19.338;2023-04-06T02:39:47;126.25;;;63.75;;
40951;SDS011;26682;51.660;19.338;2023-04-06T02:42:30;139.93;;;66.70;;
40951;SDS011;26682;51.660;19.338;2023-04-06T02:45:13;130.70;;;64.03;;
40951;SDS011;26682;51.660;19.338;2023-04-06T02:48:00;135.70;;;64.68;;
40951;SDS011;26682;51.660;19.338;2023-04-06T02:50:45;135.38;;;67.22;;
40951;SDS011;26682;51.660;19.338;2023-04-06T02:53:28;128.82;;;66.47;;
40951;SDS011;26682;51.660;19.338;2023-04-06T02:56:11;138.38;;;70.00;;
40951;SDS011;26682;51.660;19.338;2023-04-06T02:58:59;135.77;;;71.07;;
40951;SDS011;26682;51.660;19.338;2023-04-06T03:01:45;139.25;;;72.47;;
40951;SDS011;26682;51.660;19.338;2023-04-06T03:04:28;144.65;;;72.40;;
40951;SDS011;26682;51.660;19.338;2023-04-06T03:07:13;131.00;;;65.60;;
40951;SDS011;26682;51.660;19.338;2023-04-06T03:09:55;136.93;;;66.90;;
40951;SDS011;26682;51.660;19.338;2023-04-06T03:12:38;168.68;;;73.10;;
40951;SDS011;26682;51.660;19.338;2023-04-06T03:15:33;174.90;;;79.30;;
40951;SDS011;26682;51.660;19.338;2023-04-06T03:18:26;163.52;;;81.00;;
40951;SDS011;26682;51.660;19.338;2023-04-06T03:21:10;158.43;;;75.38;;
40951;SDS011;26682;51.660;19.338;2023-04-06T03:24:05;151.57;;;72.28;;
40951;SDS011;26682;51.660;19.338;2023-04-06T03:26:48;147.82;;;72.85;;
40951;SDS011;26682;51.660;19.338;2023-04-06T03:29:30;150.90;;;70.97;;
40951;SDS011;26682;51.660;19.338;2023-04-06T03:32:14;163.00;;;70.93;;
40951;SDS011;26682;51.660;19.338;2023-04-06T03:34:56;151.05;;;70.50;;
40951;SDS011;26682;51.660;19.338;2023-04-06T03:37:39;140.93;;;67.18;;
40951;SDS011;26682;51.660;19.338;2023-04-06T03:40:21;161.02;;;70.25;;
40951;SDS011;26682;51.660;19.338;2023-04-06T03:43:04;131.60;;;64.50;;
40951;SDS011;26682;51.660;19.338;2023-04-06T03:45:50;134.43;;;70.75;;
40951;SDS011;26682;51.660;19.338;2023-04-06T03:48:33;145.90;;;74.97;;
40951;SDS011;26682;51.660;19.338;2023-04-06T03:51:19;174.40;;;87.03;;
40951;SDS011;26682;51.660;19.338;2023-04-06T03:54:02;142.55;;;75.55;;
40951;SDS011;26682;51.660;19.338;2023-04-06T03:56:45;134.43;;;71.22;;
40951;SDS011;26682;51.660;19.338;2023-04-06T03:59:27;145.88;;;73.65;;
40951;SDS011;26682;51.660;19.338;2023-04-06T04:02:10;153.80;;;78.78;;
40951;SDS011;26682;51.660;19.338;2023-04-06T04:04:52;168.88;;;84.40;;
40951;SDS011;26682;51.660;19.338;2023-04-06T04:07:35;188.52;;;93.68;;
40951;SDS011;26682;51.660;19.338;2023-04-06T04:10:19;183.10;;;90.43;;
40951;SDS011;26682;51.660;19.338;2023-04-06T04:13:01;185.77;;;92.70;;
40951;SDS011;26682;51.660;19.338;2023-04-06T04:15:44;191.90;;;97.20;;
40951;SDS011;26682;51.660;19.338;2023-04-06T04:18:27;193.85;;;90.50;;
40951;SDS011;26682;51.660;19.338;2023-04-06T04:21:09;182.80;;;88.18;;
40951;SDS011;26682;51.660;19.338;2023-04-06T04:23:53;189.25;;;88.95;;
40951;SDS011;26682;51.660;19.338;2023-04-06T04:26:36;186.65;;;87.18;;
40951;SDS011;26682;51.660;19.338;2023-04-06T04:29:21;172.45;;;79.20;;
40951;SDS011;26682;51.660;19.338;2023-04-06T04:32:05;189.18;;;78.40;;
40951;SDS011;26682;51.660;19.338;2023-04-06T04:34:48;169.30;;;76.55;;
40951;SDS011;26682;51.660;19.338;2023-04-06T04:40:27;156.32;;;73.70;;
40951;SDS011;26682;51.660;19.338;2023-04-06T04:43:19;155.10;;;69.13;;
40951;SDS011;26682;51.660;19.338;2023-04-06T04:46:04;150.23;;;67.80;;
40951;SDS011;26682;51.660;19.338;2023-04-06T04:48:58;156.43;;;70.03;;
40951;SDS011;26682;51.660;19.338;2023-04-06T04:51:41;170.45;;;77.80;;
40951;SDS011;26682;51.660;19.338;2023-04-06T04:54:33;156.80;;;74.47;;
40951;SDS011;26682;51.660;19.338;2023-04-06T04:57:16;155.48;;;77.68;;
40951;SDS011;26682;51.660;19.338;2023-04-06T04:59:58;150.25;;;69.70;;
40951;SDS011;26682;51.660;19.338;2023-04-06T05:02:41;154.40;;;70.70;;
40951;SDS011;26682;51.660;19.338;2023-04-06T05:05:31;216.23;;;87.60;;
40951;SDS011;26682;51.660;19.338;2023-04-06T05:08:15;256.88;;;102.65;;
40951;SDS011;26682;51.660;19.338;2023-04-06T05:11:01;233.13;;;93.97;;
40951;SDS011;26682;51.660;19.338;2023-04-06T05:13:49;297.23;;;110.47;;
40951;SDS011;26682;51.660;19.338;2023-04-06T05:16:36;236.95;;;96.72;;
40951;SDS011;26682;51.660;19.338;2023-04-06T05:19:18;216.57;;;84.07;;
40951;SDS011;26682;51.660;19.338;2023-04-06T05:22:01;192.88;;;75.60;;
40951;SDS011;26682;51.660;19.338;2023-04-06T05:24:48;211.52;;;82.03;;
40951;SDS011;26682;51.660;19.338;2023-04-06T05:27:30;195.10;;;76.00;;
40951;SDS011;26682;51.660;19.338;2023-04-06T05:30:17;162.45;;;63.05;;
40951;SDS011;26682;51.660;19.338;2023-04-06T05:33:01;75.30;;;41.17;;
40951;SDS011;26682;51.660;19.338;2023-04-06T05:35:56;66.43;;;35.72;;
40951;SDS011;26682;51.660;19.338;2023-04-06T05:38:38;69.15;;;36.80;;
40951;SDS011;26682;51.660;19.338;2023-04-06T05:41:41;65.07;;;35.95;;
40951;SDS011;26682;51.660;19.338;2023-04-06T05:44:26;64.82;;;35.15;;
40951;SDS011;26682;51.660;19.338;2023-04-06T05:47:17;56.70;;;33.47;;
40951;SDS011;26682;51.660;19.338;2023-04-06T05:50:05;120.30;;;56.50;;
40951;SDS011;26682;51.660;19.338;2023-04-06T05:52:51;124.90;;;63.50;;
40951;SDS011;26682;51.660;19.338;2023-04-06T05:55:36;102.57;;;52.08;;
40951;SDS011;26682;51.660;19.338;2023-04-06T05:58:25;102.45;;;52.35;;
40951;SDS011;26682;51.660;19.338;2023-04-06T06:01:09;104.15;;;49.30;;
40951;SDS011;26682;51.660;19.338;2023-04-06T06:03:56;81.85;;;39.60;;
40951;SDS011;26682;51.660;19.338;2023-04-06T06:09:31;88.00;;;37.92;;
40951;SDS011;26682;51.660;19.338;2023-04-06T06:12:24;64.82;;;33.25;;
40951;SDS011;26682;51.660;19.338;2023-04-06T06:15:06;52.55;;;29.58;;
40951;SDS011;26682;51.660;19.338;2023-04-06T06:17:53;41.47;;;23.70;;
40951;SDS011;26682;51.660;19.338;2023-04-06T06:20:36;68.40;;;35.67;;
40951;SDS011;26682;51.660;19.338;2023-04-06T06:23:19;54.00;;;32.00;;
40951;SDS011;26682;51.660;19.338;2023-04-06T06:26:03;62.75;;;34.58;;
40951;SDS011;26682;51.660;19.338;2023-04-06T06:28:46;68.05;;;38.70;;
40951;SDS011;26682;51.660;19.338;2023-04-06T06:31:29;66.95;;;35.65;;
40951;SDS011;26682;51.660;19.338;2023-04-06T06:34:12;67.07;;;36.05;;
40951;SDS011;26682;51.660;19.338;2023-04-06T06:36:56;64.78;;;35.15;;
40951;SDS011;26682;51.660;19.338;2023-04-06T06:39:38;49.28;;;28.23;;
40951;SDS011;26682;51.660;19.338;2023-04-06T06:42:21;64.65;;;35.45;;
40951;SDS011;26682;51.660;19.338;2023-04-06T06:45:20;60.92;;;32.58;;
40951;SDS011;26682;51.660;19.338;2023-04-06T06:48:03;60.53;;;30.88;;
40951;SDS011;26682;51.660;19.338;2023-04-06T06:50:47;56.50;;;29.40;;
40951;SDS011;26682;51.660;19.338;2023-04-06T06:53:30;51.03;;;26.83;;
40951;SDS011;26682;51.660;19.338;2023-04-06T06:56:14;48.30;;;27.08;;
40951;SDS011;26682;51.660;19.338;2023-04-06T06:58:57;65.68;;;34.90;;
40951;SDS011;26682;51.660;19.338;2023-04-06T07:01:40;53.10;;;29.55;;
40951;SDS011;26682;51.660;19.338;2023-04-06T07:04:22;61.53;;;31.33;;
40951;SDS011;26682;51.660;19.338;2023-04-06T07:07:05;47.33;;;25.98;;
40951;SDS011;26682;51.660;19.338;2023-04-06T07:09:48;50.05;;;23.63;;
40951;SDS011;26682;51.660;19.338;2023-04-06T07:12:32;51.42;;;25.00;;
40951;SDS011;26682;51.660;19.338;2023-04-06T07:15:16;41.03;;;20.20;;
40951;SDS011;26682;51.660;19.338;2023-04-06T07:17:59;35.67;;;21.55;;
40951;SDS011;26682;51.660;19.338;2023-04-06T07:20:42;40.63;;;23.33;;
40951;SDS011;26682;51.660;19.338;2023-04-06T07:23:25;53.55;;;23.00;;
40951;SDS011;26682;51.660;19.338;2023-04-06T07:26:08;37.80;;;21.67;;
40951;SDS011;26682;51.660;19.338;2023-04-06T07:28:51;29.77;;;19.38;;
40951;SDS011;26682;51.660;19.338;2023-04-06T07:31:36;37.28;;;20.63;;
40951;SDS011;26682;51.660;19.338;2023-04-06T07:34:19;48.22;;;20.83;;
40951;SDS011;26682;51.660;19.338;2023-04-06T07:37:03;120.05;;;48.28;;
40951;SDS011;26682;51.660;19.338;2023-04-06T07:39:47;66.25;;;32.28;;
40951;SDS011;26682;51.660;19.338;2023-04-06T07:42:31;56.40;;;25.90;;
40951;SDS011;26682;51.660;19.338;2023-04-06T07:45:15;48.17;;;21.98;;
40951;SDS011;26682;51.660;19.338;2023-04-06T07:47:58;37.53;;;19.88;;
40951;SDS011;26682;51.660;19.338;2023-04-06T07:50:42;69.10;;;26.70;;
40951;SDS011;26682;51.660;19.338;2023-04-06T07:53:27;39.35;;;21.50;;
40951;SDS011;26682;51.660;19.338;2023-04-06T07:59:18;64.03;;;29.55;;
40951;SDS011;26682;51.660;19.338;2023-04-06T08:02:01;39.20;;;22.15;;
40951;SDS011;26682;51.660;19.338;2023-04-06T08:04:44;28.63;;;17.52;;
40951;SDS011;26682;51.660;19.338;2023-04-06T08:07:26;28.00;;;16.50;;
40951;SDS011;26682;51.660;19.338;2023-04-06T08:10:09;31.67;;;17.70;;
40951;SDS011;26682;51.660;19.338;2023-04-06T08:12:52;23.58;;;13.45;;
40951;SDS011;26682;51.660;19.338;2023-04-06T08:15:34;28.15;;;14.45;;
40951;SDS011;26682;51.660;19.338;2023-04-06T08:18:17;18.50;;;10.25;;
40951;SDS011;26682;51.660;19.338;2023-04-06T08:21:00;21.98;;;11.45;;
40951;SDS011;26682;51.660;19.338;2023-04-06T08:23:43;30.42;;;14.55;;
40951;SDS011;26682;51.660;19.338;2023-04-06T08:26:26;32.05;;;14.20;;
40951;SDS011;26682;51.660;19.338;2023-04-06T08:29:08;14.75;;;8.50;;
40951;SDS011;26682;51.660;19.338;2023-04-06T08:31:51;19.30;;;9.75;;
40951;SDS011;26682;51.660;19.338;2023-04-06T08:34:34;13.85;;;9.63;;
40951;SDS011;26682;51.660;19.338;2023-04-06T08:37:16;17.38;;;8.77;;
40951;SDS011;26682;51.660;19.338;2023-04-06T08:39:59;27.35;;;12.25;;
40951;SDS011;26682;51.660;19.338;2023-04-06T08:42:49;20.83;;;10.27;;
40951;SDS011;26682;51.660;19.338;2023-04-06T08:45:35;26.02;;;11.45;;
40951;SDS011;26682;51.660;19.338;2023-04-06T08:48:20;20.65;;;9.75;;
40951;SDS011;26682;51.660;19.338;2023-04-06T08:51:03;30.55;;;15.13;;
40951;SDS011;26682;51.660;19.338;2023-04-06T08:53:46;14.70;;;8.32;;
40951;SDS011;26682;51.660;19.338;2023-04-06T08:56:30;13.98;;;7.60;;
40951;SDS011;26682;51.660;19.338;2023-04-06T08:59:13;17.05;;;10.25;;
40951;SDS011;26682;51.660;19.338;2023-04-06T09:01:56;48.90;;;20.38;;
40951;SDS011;26682;51.660;19.338;2023-04-06T09:04:39;24.35;;;11.32;;
40951;SDS011;26682;51.660;19.338;2023-04-06T09:07:22;30.92;;;16.75;;
40951;SDS011;26682;51.660;19.338;2023-04-06T09:10:06;12.75;;;8.43;;
40951;SDS011;26682;51.660;19.338;2023-04-06T09:12:49;17.08;;;10.40;;
40951;SDS011;26682;51.660;19.338;2023-04-06T09:15:32;17.77;;;11.88;;
40951;SDS011;26682;51.660;19.338;2023-04-06T09:18:14;17.10;;;9.63;;
40951;SDS011;26682;51.660;19.338;2023-04-06T09:21:11;16.40;;;9.80;;
40951;SDS011;26682;51.660;19.338;2023-04-06T09:24:00;9.77;;;7.10;;
40951;SDS011;26682;51.660;19.338;2023-04-06T09:26:45;9.18;;;6.35;;
40951;SDS011;26682;51.660;19.338;2023-04-06T09:29:29;20.35;;;11.55;;
40951;SDS011;26682;51.660;19.338;2023-04-06T09:32:11;16.23;;;9.73;;
40951;SDS011;26682;51.660;19.338;2023-04-06T09:35:07;8.70;;;5.30;;
40951;SDS011;26682;51.660;19.338;2023-04-06T09:37:51;12.88;;;4.57;;
40951;SDS011;26682;51.660;19.338;2023-04-06T09:40:34;9.07;;;4.80;;
40951;SDS011;26682;51.660;19.338;2023-04-06T09:43:27;6.78;;;4.78;;
40951;SDS011;26682;51.660;19.338;2023-04-06T09:46:10;7.63;;;4.70;;
40951;SDS011;26682;51.660;19.338;2023-04-06T09:48:52;35.95;;;19.60;;
40951;SDS011;26682;51.660;19.338;2023-04-06T09:51:39;43.05;;;22.20;;
40951;SDS011;26682;51.660;19.338;2023-04-06T09:54:31;40.67;;;23.48;;
40951;SDS011;26682;51.660;19.338;2023-04-06T09:57:18;62.28;;;34.60;;
40951;SDS011;26682;51.660;19.338;2023-04-06T10:00:22;17.60;;;12.43;;
40951;SDS011;26682;51.660;19.338;2023-04-06T10:03:10;28.45;;;12.93;;
40951;SDS011;26682;51.660;19.338;2023-04-06T10:06:04;14.57;;;6.95;;
40951;SDS011;26682;51.660;19.338;2023-04-06T10:08:50;13.27;;;7.55;;
40951;SDS011;26682;51.660;19.338;2023-04-06T10:11:36;9.32;;;6.68;;
40951;SDS011;26682;51.660;19.338;2023-04-06T10:14:19;7.07;;;5.13;;
40951;SDS011;26682;51.660;19.338;2023-04-06T10:17:03;13.55;;;5.75;;
40951;SDS011;26682;51.660;19.338;2023-04-06T10:22:36;16.92;;;4.97;;
40951;SDS011;26682;51.660;19.338;2023-04-06T10:25:30;11.80;;;6.03;;
40951;SDS011;26682;51.660;19.338;2023-04-06T10:28:14;15.85;;;6.97;;
40951;SDS011;26682;51.660;19.338;2023-04-06T10:30:57;9.60;;;5.82;;
40951;SDS011;26682;51.660;19.338;2023-04-06T10:33:40;12.20;;;8.52;;
40951;SDS011;26682;51.660;19.338;2023-04-06T10:36:24;14.52;;;6.40;;
40951;SDS011;26682;51.660;19.338;2023-04-06T10:39:11;7.13;;;5.30;;
40951;SDS011;26682;51.660;19.338;2023-04-06T10:41:53;8.65;;;5.25;;
40951;SDS011;26682;51.660;19.338;2023-04-06T10:44:41;14.10;;;6.75;;
40951;SDS011;26682;51.660;19.338;2023-04-06T10:47:25;9.48;;;6.00;;
40951;SDS011;26682;51.660;19.338;2023-04-06T10:50:07;11.02;;;6.90;;
40951;SDS011;26682;51.660;19.338;2023-04-06T10:52:58;6.68;;;4.88;;
40951;SDS011;26682;51.660;19.338;2023-04-06T10:55:43;11.43;;;6.57;;
40951;SDS011;26682;51.660;19.338;2023-04-06T10:58:27;19.13;;;8.60;;
40951;SDS011;26682;51.660;19.338;2023-04-06T11:01:10;19.85;;;10.35;;
40951;SDS011;26682;51.660;19.338;2023-04-06T11:03:54;67.63;;;30.30;;
40951;SDS011;26682;51.660;19.338;2023-04-06T11:09:26;13.02;;;8.15;;
40951;SDS011;26682;51.660;19.338;2023-04-06T11:12:19;13.30;;;8.23;;
40951;SDS011;26682;51.660;19.338;2023-04-06T11:15:03;13.40;;;10.02;;
40951;SDS011;26682;51.660;19.338;2023-04-06T11:17:46;9.82;;;7.90;;
40951;SDS011;26682;51.660;19.338;2023-04-06T11:20:29;12.50;;;8.98;;
40951;SDS011;26682;51.660;19.338;2023-04-06T11:23:11;10.55;;;6.97;;
40951;SDS011;26682;51.660;19.338;2023-04-06T11:25:54;12.52;;;7.28;;
40951;SDS011;26682;51.660;19.338;2023-04-06T11:28:36;56.15;;;9.38;;
40951;SDS011;26682;51.660;19.338;2023-04-06T11:31:19;10.23;;;5.85;;
40951;SDS011;26682;51.660;19.338;2023-04-06T11:34:09;13.07;;;6.10;;
40951;SDS011;26682;51.660;19.338;2023-04-06T11:36:58;12.00;;;7.85;;
40951;SDS011;26682;51.660;19.338;2023-04-06T11:39:49;10.60;;;5.70;;
40951;SDS011;26682;51.660;19.338;2023-04-06T11:42:34;11.65;;;7.32;;
40951;SDS011;26682;51.660;19.338;2023-04-06T11:45:17;16.95;;;8.32;;
40951;SDS011;26682;51.660;19.338;2023-04-06T11:48:00;21.27;;;10.20;;
40951;SDS011;26682;51.660;19.338;2023-04-06T11:50:43;6.47;;;5.03;;
40951;SDS011;26682;51.660;19.338;2023-04-06T11:53:29;14.32;;;7.03;;
40951;SDS011;26682;51.660;19.338;2023-04-06T11:56:22;18.02;;;10.48;;
40951;SDS011;26682;51.660;19.338;2023-04-06T11:59:13;31.10;;;10.45;;
40951;SDS011;26682;51.660;19.338;2023-04-06T12:01:59;17.48;;;9.13;;
40951;SDS011;26682;51.660;19.338;2023-04-06T12:04:43;12.45;;;7.63;;
40951;SDS011;26682;51.660;19.338;2023-04-06T12:07:26;9.30;;;7.68;;
40951;SDS011;26682;51.660;19.338;2023-04-06T12:10:10;15.48;;;7.85;;
40951;SDS011;26682;51.660;19.338;2023-04-06T12:12:53;17.88;;;8.93;;
40951;SDS011;26682;51.660;19.338;2023-04-06T12:15:35;11.52;;;7.50;;
40951;SDS011;26682;51.660;19.338;2023-04-06T12:18:18;23.20;;;10.98;;
40951;SDS011;26682;51.660;19.338;2023-04-06T12:21:00;11.80;;;7.72;;
40951;SDS011;26682;51.660;19.338;2023-04-06T12:23:46;14.60;;;8.77;;
40951;SDS011;26682;51.660;19.338;2023-04-06T12:26:29;11.15;;;8.25;;
40951;SDS011;26682;51.660;19.338;2023-04-06T12:29:12;17.02;;;9.85;;
40951;SDS011;26682;51.660;19.338;2023-04-06T12:31:54;13.05;;;7.60;;
40951;SDS011;26682;51.660;19.338;2023-04-06T12:34:38;12.75;;;7.90;;
40951;SDS011;26682;51.660;19.338;2023-04-06T12:37:20;8.32;;;6.47;;
40951;SDS011;26682;51.660;19.338;2023-04-06T12:40:03;11.07;;;8.30;;
40951;SDS011;26682;51.660;19.338;2023-04-06T12:42:46;10.35;;;8.25;;
40951;SDS011;26682;51.660;19.338;2023-04-06T12:45:30;18.15;;;8.02;;
40951;SDS011;26682;51.660;19.338;2023-04-06T12:48:13;13.18;;;8.20;;
40951;SDS011;26682;51.660;19.338;2023-04-06T12:50:57;12.40;;;8.07;;
40951;SDS011;26682;51.660;19.338;2023-04-06T12:53:41;16.25;;;8.82;;
40951;SDS011;26682;51.660;19.338;2023-04-06T12:56:26;13.38;;;9.52;;
40951;SDS011;26682;51.660;19.338;2023-04-06T12:59:09;15.32;;;10.95;;
40951;SDS011;26682;51.660;19.338;2023-04-06T13:01:52;13.82;;;9.27;;
40951;SDS011;26682;51.660;19.338;2023-04-06T13:04:34;9.57;;;7.50;;
40951;SDS011;26682;51.660;19.338;2023-04-06T13:07:17;15.95;;;11.27;;
40951;SDS011;26682;51.660;19.338;2023-04-06T13:09:59;22.40;;;14.90;;
40951;SDS011;26682;51.660;19.338;2023-04-06T13:12:42;14.07;;;10.05;;
40951;SDS011;26682;51.660;19.338;2023-04-06T13:15:24;17.45;;;10.93;;
40951;SDS011;26682;51.660;19.338;2023-04-06T13:18:07;13.05;;;9.30;;
40951;SDS011;26682;51.660;19.338;2023-04-06T13:20:50;14.20;;;9.43;;
40951;SDS011;26682;51.660;19.338;2023-04-06T13:23:33;15.32;;;10.52;;
40951;SDS011;26682;51.660;19.338;2023-04-06T13:26:17;14.15;;;9.02;;
40951;SDS011;26682;51.660;19.338;2023-04-06T13:28:59;12.98;;;9.38;;
40951;SDS011;26682;51.660;19.338;2023-04-06T13:31:43;15.82;;;11.02;;
40951;SDS011;26682;51.660;19.338;2023-04-06T13:34:25;17.35;;;10.93;;
40951;SDS011;26682;51.660;19.338;2023-04-06T13:37:09;23.00;;;16.70;;
40951;SDS011;26682;51.660;19.338;2023-04-06T13:39:55;30.17;;;20.05;;
40951;SDS011;26682;51.660;19.338;2023-04-06T13:42:37;18.02;;;12.93;;
40951;SDS011;26682;51.660;19.338;2023-04-06T13:45:22;14.77;;;11.57;;
40951;SDS011;26682;51.660;19.338;2023-04-06T13:48:05;14.20;;;10.50;;
40951;SDS011;26682;51.660;19.338;2023-04-06T13:50:48;17.73;;;11.30;;
40951;SDS011;26682;51.660;19.338;2023-04-06T13:53:30;28.33;;;17.08;;
40951;SDS011;26682;51.660;19.338;2023-04-06T13:56:17;24.80;;;16.02;;
40951;SDS011;26682;51.660;19.338;2023-04-06T13:59:03;72.25;;;35.88;;
40951;SDS011;26682;51.660;19.338;2023-04-06T14:01:45;18.20;;;12.35;;
40951;SDS011;26682;51.660;19.338;2023-04-06T14:04:29;33.47;;;20.15;;
40951;SDS011;26682;51.660;19.338;2023-04-06T14:07:12;48.08;;;30.50;;
40951;SDS011;26682;51.660;19.338;2023-04-06T14:09:54;13.35;;;8.68;;
40951;SDS011;26682;51.660;19.338;2023-04-06T14:12:37;14.70;;;9.15;;
40951;SDS011;26682;51.660;19.338;2023-04-06T14:15:19;13.60;;;9.25;;
40951;SDS011;26682;51.660;19.338;2023-04-06T14:18:04;12.70;;;9.20;;
40951;SDS011;26682;51.660;19.338;2023-04-06T14:20:52;12.73;;;9.10;;
40951;SDS011;26682;51.660;19.338;2023-04-06T14:23:36;13.73;;;9.77;;
40951;SDS011;26682;51.660;19.338;2023-04-06T14:26:18;13.38;;;9.23;;
40951;SDS011;26682;51.660;19.338;2023-04-06T14:29:02;14.00;;;10.27;;
40951;SDS011;26682;51.660;19.338;2023-04-06T14:31:46;13.20;;;10.95;;
40951;SDS011;26682;51.660;19.338;2023-04-06T14:34:29;16.55;;;12.55;;
40951;SDS011;26682;51.660;19.338;2023-04-06T14:37:12;16.60;;;11.13;;
40951;SDS011;26682;51.660;19.338;2023-04-06T14:39:56;14.82;;;12.18;;
40951;SDS011;26682;51.660;19.338;2023-04-06T14:42:39;16.75;;;13.32;;
40951;SDS011;26682;51.660;19.338;2023-04-06T14:45:21;18.27;;;12.38;;
40951;SDS011;26682;51.660;19.338;2023-04-06T14:48:04;38.63;;;24.83;;
40951;SDS011;26682;51.660;19.338;2023-04-06T14:50:52;71.95;;;35.47;;
40951;SDS011;26682;51.660;19.338;2023-04-06T14:53:35;31.67;;;18.58;;
40951;SDS011;26682;51.660;19.338;2023-04-06T14:56:21;32.97;;;21.33;;
40951;SDS011;26682;51.660;19.338;2023-04-06T14:59:05;61.72;;;32.90;;
40951;SDS011;26682;51.660;19.338;2023-04-06T15:01:47;46.95;;;26.52;;
40951;SDS011;26682;51.660;19.338;2023-04-06T15:04:30;34.33;;;22.63;;
40951;SDS011;26682;51.660;19.338;2023-04-06T15:07:15;22.88;;;17.45;;
40951;SDS011;26682;51.660;19.338;2023-04-06T15:09:58;23.23;;;17.35;;
40951;SDS011;26682;51.660;19.338;2023-04-06T15:12:40;22.10;;;16.80;;
40951;SDS011;26682;51.660;19.338;2023-04-06T15:15:23;23.52;;;17.52;;
40951;SDS011;26682;51.660;19.338;2023-04-06T15:18:06;31.90;;;21.85;;
40951;SDS011;26682;51.660;19.338;2023-04-06T15:20:48;35.20;;;20.98;;
40951;SDS011;26682;51.660;19.338;2023-04-06T15:23:31;30.45;;;18.83;;
40951;SDS011;26682;51.660;19.338;2023-04-06T15:26:15;25.67;;;17.48;;
40951;SDS011;26682;51.660;19.338;2023-04-06T15:28:59;28.30;;;18.90;;
40951;SDS011;26682;51.660;19.338;2023-04-06T15:31:42;29.17;;;20.40;;
40951;SDS011;26682;51.660;19.338;2023-04-06T15:34:25;29.13;;;17.98;;
40951;SDS011;26682;51.660;19.338;2023-04-06T15:37:12;34.08;;;17.63;;
40951;SDS011;26682;51.660;19.338;2023-04-06T15:39:54;23.17;;;15.77;;
40951;SDS011;26682;51.660;19.338;2023-04-06T15:42:37;19.38;;;14.07;;
40951;SDS011;26682;51.660;19.338;2023-04-06T15:45:19;19.88;;;15.23;;
40951;SDS011;26682;51.660;19.338;2023-04-06T15:48:02;22.08;;;15.43;;
40951;SDS011;26682;51.660;19.338;2023-04-06T15:50:46;27.27;;;19.90;;
40951;SDS011;26682;51.660;19.338;2023-04-06T15:53:29;22.58;;;16.45;;
40951;SDS011;26682;51.660;19.338;2023-04-06T15:56:12;23.08;;;16.73;;
40951;SDS011;26682;51.660;19.338;2023-04-06T15:58:55;36.97;;;20.50;;
40951;SDS011;26682;51.660;19.338;2023-04-06T16:01:38;27.65;;;19.90;;
40951;SDS011;26682;51.660;19.338;2023-04-06T16:04:23;27.52;;;20.02;;
40951;SDS011;26682;51.660;19.338;2023-04-06T16:07:05;35.40;;;20.92;;